Pellston, MI (49769)

6:37 PM EDT on September 03, 2015 (GMT -0400)
Creekside, 4 Miles WSW Bliss | | Change Station
CLOSE
Current Station
Personal Weather Station
Location: Bliss Township, MI
Elevation: 708 ft
Nearby Weather Stations

Elev 708 ft 45.65 °N, 84.92 °W | Updated 11 seconds ago

Mostly Cloudy
Mostly Cloudy
68.0 °F
Feels Like 68.0 °F
N
6.0
Wind Variable Wind from ESE
Gusts 12.0 mph

Today
High -- | Low -- °F
--% Chance of Precip.
Yesterday
High -- | Low -- °F
Precip. -- in
7:02 AM 8:13 PM
Waning Gibbous, 66% visible
Pressure 29.93 in
Visibility 8.0 miles
Clouds Mostly Cloudy 1000 ft
Mostly Cloudy 1500 ft
Dew Point 65 °F
Humidity 91%
Rainfall 0.70 in
Snow Depth Not available.
UV 1 out of 12
Pollen 10.00 out of 12
Air Quality Not available.
Flu Activity Not available.
SPECI KPLN 032214Z AUTO 07006KT 8SM BKN010 BKN015 22/19 A2993 RMK AO2 CIG 008V012 T02170194
Pressure 29.93 in
Visibility 8.0 miles
Clouds Mostly Cloudy 1000 ft
Mostly Cloudy 1500 ft
Dew Point 65 °F
Humidity 91%
Rainfall 0.70 in
Snow Depth Not available.
UV 1 out of 12
Pollen 10.00 out of 12
Air Quality Not available.
Flu Activity Not available.
SPECI KPLN 032214Z AUTO 07006KT 8SM BKN010 BKN015 22/19 A2993 RMK AO2 CIG 008V012 T02170194
Nowcast | as of 6:00 PM EDT on September 3, 2015

At 7 PM...numerous showers. Temperature 71. East winds 9 mph. At 9 PM...partly cloudy. Temperature 68. East winds 9 mph. At 11 PM...partly cloudy. Temperature 68. Northeast winds 9 mph. At 1 am...partly cloudy. Isolated showers. Temperature 67. East winds 8 mph.

×

10-Day Weather Forecast

×

Almanac

Astronomy

Sep. 03, 2015 Rise Set
Actual Time
Civil Twilight
Nautical Twilight
Astronomical Twilight
Moon
Length of Visible Light
Length of Day
Tomorrow will be .
, % of the Moon is Illuminated

Today's Extremes

State Highs State Lows

Community

WunderPhotos

Upload Photos

1,852,049 photos uploaded!

WunderBlogs® & News

Nearby

Air Quality

  Air Quality AQ Index Pollutant
Not available.

Snow Depth

Station Depth Elevation

Earthquake Activity

City Distance Mag. Time & Date
Minimum magnitude displayed is 2.5.

Coastal Water Temperatures

Place Temperature

Stations

Nearby Weather Stations

Station Location Temp. Windchill Dew Point Humidity Wind Precip. Elev Updated Type